sensor_id;sensor_type;location;lat;lon;timestamp;P1;durP1;ratioP1;P2;durP2;ratioP2
70733;SDS011;58320;48.804;9.252;2024-02-15T04:03:13;4.25;;;2.75;;
70733;SDS011;58320;48.804;9.252;2024-02-15T04:05:39;5.07;;;2.10;;
70733;SDS011;58320;48.804;9.252;2024-02-15T04:08:05;6.57;;;2.23;;
70733;SDS011;58320;48.804;9.252;2024-02-15T04:10:31;5.18;;;1.80;;
70733;SDS011;58320;48.804;9.252;2024-02-15T04:12:56;5.73;;;2.30;;
70733;SDS011;58320;48.804;9.252;2024-02-15T04:15:23;5.45;;;1.92;;
70733;SDS011;58320;48.804;9.252;2024-02-15T04:17:49;4.20;;;1.70;;
70733;SDS011;58320;48.804;9.252;2024-02-15T04:20:20;2.95;;;1.80;;
70733;SDS011;58320;48.804;9.252;2024-02-15T04:22:47;3.70;;;1.90;;
70733;SDS011;58320;48.804;9.252;2024-02-15T04:25:15;5.00;;;2.27;;
70733;SDS011;58320;48.804;9.252;2024-02-15T04:27:45;5.85;;;2.22;;
70733;SDS011;58320;48.804;9.252;2024-02-15T04:30:14;6.13;;;2.30;;
70733;SDS011;58320;48.804;9.252;2024-02-15T04:32:40;6.05;;;1.90;;
70733;SDS011;58320;48.804;9.252;2024-02-15T04:35:06;4.93;;;2.27;;
70733;SDS011;58320;48.804;9.252;2024-02-15T04:37:32;4.55;;;2.00;;
70733;SDS011;58320;48.804;9.252;2024-02-15T04:39:59;4.50;;;2.17;;
70733;SDS011;58320;48.804;9.252;2024-02-15T04:42:33;4.57;;;1.92;;
70733;SDS011;58320;48.804;9.252;2024-02-15T04:44:59;3.97;;;2.00;;
70733;SDS011;58320;48.804;9.252;2024-02-15T04:47:26;5.50;;;2.10;;
70733;SDS011;58320;48.804;9.252;2024-02-15T04:49:51;4.10;;;2.00;;
70733;SDS011;58320;48.804;9.252;2024-02-15T04:52:17;5.57;;;1.77;;
70733;SDS011;58320;48.804;9.252;2024-02-15T04:54:43;5.00;;;1.90;;
70733;SDS011;58320;48.804;9.252;2024-02-15T04:57:09;3.33;;;1.77;;
70733;SDS011;58320;48.804;9.252;2024-02-15T04:59:36;4.93;;;1.42;;
70733;SDS011;58320;48.804;9.252;2024-02-15T05:02:02;3.85;;;1.95;;
70733;SDS011;58320;48.804;9.252;2024-02-15T05:04:28;5.45;;;2.15;;
70733;SDS011;58320;48.804;9.252;2024-02-15T05:06:54;4.03;;;2.00;;
70733;SDS011;58320;48.804;9.252;2024-02-15T05:09:21;6.82;;;2.17;;
70733;SDS011;58320;48.804;9.252;2024-02-15T05:11:47;5.60;;;2.10;;
70733;SDS011;58320;48.804;9.252;2024-02-15T05:14:13;4.57;;;1.87;;
70733;SDS011;58320;48.804;9.252;2024-02-15T05:16:44;2.90;;;1.40;;
70733;SDS011;58320;48.804;9.252;2024-02-15T05:19:12;4.05;;;2.13;;
70733;SDS011;58320;48.804;9.252;2024-02-15T05:21:39;3.72;;;1.95;;
70733;SDS011;58320;48.804;9.252;2024-02-15T05:24:05;3.33;;;2.00;;
70733;SDS011;58320;48.804;9.252;2024-02-15T05:26:31;5.73;;;1.87;;
70733;SDS011;58320;48.804;9.252;2024-02-15T05:28:57;4.82;;;2.20;;
70733;SDS011;58320;48.804;9.252;2024-02-15T05:31:23;3.60;;;1.90;;
70733;SDS011;58320;48.804;9.252;2024-02-15T05:33:53;5.00;;;2.13;;
70733;SDS011;58320;48.804;9.252;2024-02-15T05:36:20;5.77;;;2.40;;
70733;SDS011;58320;48.804;9.252;2024-02-15T05:38:49;3.92;;;2.30;;
70733;SDS011;58320;48.804;9.252;2024-02-15T05:41:17;4.95;;;2.30;;
70733;SDS011;58320;48.804;9.252;2024-02-15T05:43:44;5.63;;;2.30;;
70733;SDS011;58320;48.804;9.252;2024-02-15T05:46:11;3.75;;;2.28;;
70733;SDS011;58320;48.804;9.252;2024-02-15T05:48:38;8.13;;;2.20;;
70733;SDS011;58320;48.804;9.252;2024-02-15T05:51:04;4.70;;;2.30;;
70733;SDS011;58320;48.804;9.252;2024-02-15T05:53:32;5.65;;;2.20;;
70733;SDS011;58320;48.804;9.252;2024-02-15T05:56:05;4.82;;;2.30;;
70733;SDS011;58320;48.804;9.252;2024-02-15T05:58:32;7.22;;;2.55;;
70733;SDS011;58320;48.804;9.252;2024-02-15T06:00:58;5.87;;;2.13;;
70733;SDS011;58320;48.804;9.252;2024-02-15T06:03:30;4.72;;;2.00;;
70733;SDS011;58320;48.804;9.252;2024-02-15T06:06:01;4.57;;;2.10;;
70733;SDS011;58320;48.804;9.252;2024-02-15T06:08:31;7.25;;;2.28;;
70733;SDS011;58320;48.804;9.252;2024-02-15T06:11:01;4.80;;;2.30;;
70733;SDS011;58320;48.804;9.252;2024-02-15T06:13:27;5.77;;;2.10;;
70733;SDS011;58320;48.804;9.252;2024-02-15T06:15:53;4.38;;;2.10;;
70733;SDS011;58320;48.804;9.252;2024-02-15T06:18:19;6.53;;;2.50;;
70733;SDS011;58320;48.804;9.252;2024-02-15T06:20:58;5.20;;;1.77;;
70733;SDS011;58320;48.804;9.252;2024-02-15T06:23:25;6.07;;;2.20;;
70733;SDS011;58320;48.804;9.252;2024-02-15T06:25:53;6.20;;;2.15;;
70733;SDS011;58320;48.804;9.252;2024-02-15T06:28:23;5.10;;;1.90;;
70733;SDS011;58320;48.804;9.252;2024-02-15T06:31:08;4.88;;;2.13;;
70733;SDS011;58320;48.804;9.252;2024-02-15T06:33:54;5.60;;;2.22;;
70733;SDS011;58320;48.804;9.252;2024-02-15T06:36:48;7.23;;;2.30;;
70733;SDS011;58320;48.804;9.252;2024-02-15T06:39:35;5.35;;;2.08;;
70733;SDS011;58320;48.804;9.252;2024-02-15T06:42:08;6.13;;;2.20;;
70733;SDS011;58320;48.804;9.252;2024-02-15T06:44:41;5.72;;;2.22;;
70733;SDS011;58320;48.804;9.252;2024-02-15T06:47:07;3.72;;;2.08;;
70733;SDS011;58320;48.804;9.252;2024-02-15T06:49:35;4.40;;;2.00;;
70733;SDS011;58320;48.804;9.252;2024-02-15T06:52:08;4.43;;;1.80;;
70733;SDS011;58320;48.804;9.252;2024-02-15T06:54:37;5.30;;;2.25;;
70733;SDS011;58320;48.804;9.252;2024-02-15T06:57:06;4.72;;;2.20;;
70733;SDS011;58320;48.804;9.252;2024-02-15T06:59:33;6.70;;;2.60;;
70733;SDS011;58320;48.804;9.252;2024-02-15T07:02:00;5.07;;;2.27;;
70733;SDS011;58320;48.804;9.252;2024-02-15T07:04:26;3.67;;;1.90;;
70733;SDS011;58320;48.804;9.252;2024-02-15T07:06:52;6.15;;;2.15;;
70733;SDS011;58320;48.804;9.252;2024-02-15T07:09:23;7.05;;;2.00;;
70733;SDS011;58320;48.804;9.252;2024-02-15T07:11:50;4.85;;;2.45;;
70733;SDS011;58320;48.804;9.252;2024-02-15T07:14:16;6.10;;;2.30;;
70733;SDS011;58320;48.804;9.252;2024-02-15T07:16:46;4.07;;;2.20;;
70733;SDS011;58320;48.804;9.252;2024-02-15T07:19:13;6.20;;;2.30;;
70733;SDS011;58320;48.804;9.252;2024-02-15T07:21:39;6.43;;;2.75;;
70733;SDS011;58320;48.804;9.252;2024-02-15T07:24:05;5.53;;;2.83;;
70733;SDS011;58320;48.804;9.252;2024-02-15T07:26:31;6.43;;;2.37;;
70733;SDS011;58320;48.804;9.252;2024-02-15T07:28:58;5.90;;;2.75;;
70733;SDS011;58320;48.804;9.252;2024-02-15T07:31:27;4.68;;;2.10;;
70733;SDS011;58320;48.804;9.252;2024-02-15T07:33:54;5.00;;;2.20;;
70733;SDS011;58320;48.804;9.252;2024-02-15T07:36:20;5.68;;;2.20;;
70733;SDS011;58320;48.804;9.252;2024-02-15T07:38:47;5.60;;;2.03;;
70733;SDS011;58320;48.804;9.252;2024-02-15T07:41:14;4.63;;;2.67;;
70733;SDS011;58320;48.804;9.252;2024-02-15T07:43:42;5.80;;;2.80;;
70733;SDS011;58320;48.804;9.252;2024-02-15T07:46:11;4.47;;;2.47;;
70733;SDS011;58320;48.804;9.252;2024-02-15T07:48:39;4.80;;;2.55;;
70733;SDS011;58320;48.804;9.252;2024-02-15T07:51:09;5.32;;;2.20;;
70733;SDS011;58320;48.804;9.252;2024-02-15T07:53:36;5.07;;;2.05;;
70733;SDS011;58320;48.804;9.252;2024-02-15T07:56:02;4.00;;;2.37;;
70733;SDS011;58320;48.804;9.252;2024-02-15T07:58:28;5.28;;;2.60;;
70733;SDS011;58320;48.804;9.252;2024-02-15T08:00:53;6.63;;;2.60;;
70733;SDS011;58320;48.804;9.252;2024-02-15T08:03:19;6.47;;;2.55;;
70733;SDS011;58320;48.804;9.252;2024-02-15T08:05:45;5.53;;;2.63;;
70733;SDS011;58320;48.804;9.252;2024-02-15T08:08:12;5.78;;;2.50;;
70733;SDS011;58320;48.804;9.252;2024-02-15T08:10:38;5.30;;;2.47;;
70733;SDS011;58320;48.804;9.252;2024-02-15T08:13:04;4.32;;;2.20;;
70733;SDS011;58320;48.804;9.252;2024-02-15T08:15:30;7.50;;;2.73;;
70733;SDS011;58320;48.804;9.252;2024-02-15T08:17:57;5.82;;;2.50;;
70733;SDS011;58320;48.804;9.252;2024-02-15T08:20:23;7.25;;;2.20;;
70733;SDS011;58320;48.804;9.252;2024-02-15T08:22:48;6.03;;;2.63;;
70733;SDS011;58320;48.804;9.252;2024-02-15T08:25:14;12.55;;;4.30;;
70733;SDS011;58320;48.804;9.252;2024-02-15T08:27:41;10.40;;;3.85;;
70733;SDS011;58320;48.804;9.252;2024-02-15T08:30:12;6.65;;;2.63;;
70733;SDS011;58320;48.804;9.252;2024-02-15T08:32:39;5.30;;;2.80;;
70733;SDS011;58320;48.804;9.252;2024-02-15T08:35:07;6.32;;;2.78;;
70733;SDS011;58320;48.804;9.252;2024-02-15T08:37:34;5.32;;;2.80;;
70733;SDS011;58320;48.804;9.252;2024-02-15T08:40:02;6.88;;;2.78;;
70733;SDS011;58320;48.804;9.252;2024-02-15T08:42:29;6.38;;;2.85;;
70733;SDS011;58320;48.804;9.252;2024-02-15T08:44:56;5.77;;;2.40;;
70733;SDS011;58320;48.804;9.252;2024-02-15T08:47:24;4.95;;;2.50;;
70733;SDS011;58320;48.804;9.252;2024-02-15T08:49:49;6.10;;;3.03;;
70733;SDS011;58320;48.804;9.252;2024-02-15T08:52:15;6.07;;;2.50;;
70733;SDS011;58320;48.804;9.252;2024-02-15T08:54:43;4.55;;;2.53;;
70733;SDS011;58320;48.804;9.252;2024-02-15T08:57:09;4.00;;;2.27;;
70733;SDS011;58320;48.804;9.252;2024-02-15T08:59:36;5.07;;;2.00;;
70733;SDS011;58320;48.804;9.252;2024-02-15T09:02:04;7.35;;;2.78;;
70733;SDS011;58320;48.804;9.252;2024-02-15T09:04:30;5.55;;;2.22;;
70733;SDS011;58320;48.804;9.252;2024-02-15T09:06:56;5.23;;;2.90;;
70733;SDS011;58320;48.804;9.252;2024-02-15T09:09:22;5.38;;;2.22;;
70733;SDS011;58320;48.804;9.252;2024-02-15T09:11:47;4.97;;;2.30;;
70733;SDS011;58320;48.804;9.252;2024-02-15T09:14:13;4.30;;;2.10;;
70733;SDS011;58320;48.804;9.252;2024-02-15T09:16:39;6.45;;;2.60;;
70733;SDS011;58320;48.804;9.252;2024-02-15T09:19:04;6.63;;;2.77;;
70733;SDS011;58320;48.804;9.252;2024-02-15T09:21:31;7.18;;;2.72;;
70733;SDS011;58320;48.804;9.252;2024-02-15T09:23:58;6.45;;;3.22;;
70733;SDS011;58320;48.804;9.252;2024-02-15T09:26:24;7.97;;;4.70;;
70733;SDS011;58320;48.804;9.252;2024-02-15T09:28:50;6.13;;;2.97;;
70733;SDS011;58320;48.804;9.252;2024-02-15T09:31:18;6.05;;;2.90;;
70733;SDS011;58320;48.804;9.252;2024-02-15T09:33:44;7.85;;;3.10;;
70733;SDS011;58320;48.804;9.252;2024-02-15T09:36:10;4.97;;;3.05;;
70733;SDS011;58320;48.804;9.252;2024-02-15T09:38:37;4.80;;;2.60;;
70733;SDS011;58320;48.804;9.252;2024-02-15T09:41:03;6.13;;;2.40;;
70733;SDS011;58320;48.804;9.252;2024-02-15T09:43:32;5.40;;;2.53;;
70733;SDS011;58320;48.804;9.252;2024-02-15T09:45:59;5.07;;;2.67;;
70733;SDS011;58320;48.804;9.252;2024-02-15T09:48:29;5.63;;;2.20;;
70733;SDS011;58320;48.804;9.252;2024-02-15T09:50:57;5.03;;;2.80;;
70733;SDS011;58320;48.804;9.252;2024-02-15T09:53:24;5.35;;;2.30;;
70733;SDS011;58320;48.804;9.252;2024-02-15T09:55:51;5.13;;;2.10;;
70733;SDS011;58320;48.804;9.252;2024-02-15T09:58:19;5.05;;;2.63;;
70733;SDS011;58320;48.804;9.252;2024-02-15T10:00:48;4.80;;;2.63;;
70733;SDS011;58320;48.804;9.252;2024-02-15T10:03:16;6.60;;;2.53;;
70733;SDS011;58320;48.804;9.252;2024-02-15T10:05:48;5.68;;;3.00;;
70733;SDS011;58320;48.804;9.252;2024-02-15T10:08:14;4.45;;;2.42;;
70733;SDS011;58320;48.804;9.252;2024-02-15T10:10:40;6.43;;;2.80;;
70733;SDS011;58320;48.804;9.252;2024-02-15T10:13:06;6.78;;;2.67;;
70733;SDS011;58320;48.804;9.252;2024-02-15T10:15:38;5.68;;;2.55;;
70733;SDS011;58320;48.804;9.252;2024-02-15T10:18:10;6.10;;;2.38;;
70733;SDS011;58320;48.804;9.252;2024-02-15T10:20:40;6.68;;;3.20;;
70733;SDS011;58320;48.804;9.252;2024-02-15T10:23:12;6.23;;;3.50;;
70733;SDS011;58320;48.804;9.252;2024-02-15T10:25:42;5.10;;;2.13;;
70733;SDS011;58320;48.804;9.252;2024-02-15T10:28:09;5.63;;;2.30;;
70733;SDS011;58320;48.804;9.252;2024-02-15T10:30:37;4.13;;;2.05;;
70733;SDS011;58320;48.804;9.252;2024-02-15T10:33:05;5.38;;;2.08;;
70733;SDS011;58320;48.804;9.252;2024-02-15T10:35:35;3.83;;;1.20;;
70733;SDS011;58320;48.804;9.252;2024-02-15T10:38:05;5.25;;;1.85;;
70733;SDS011;58320;48.804;9.252;2024-02-15T10:40:35;3.97;;;1.70;;
70733;SDS011;58320;48.804;9.252;2024-02-15T10:43:05;4.15;;;1.40;;
70733;SDS011;58320;48.804;9.252;2024-02-15T10:45:31;4.15;;;1.92;;
70733;SDS011;58320;48.804;9.252;2024-02-15T10:47:59;4.00;;;1.60;;
70733;SDS011;58320;48.804;9.252;2024-02-15T10:50:25;7.20;;;1.40;;
70733;SDS011;58320;48.804;9.252;2024-02-15T10:52:54;4.22;;;1.40;;
70733;SDS011;58320;48.804;9.252;2024-02-15T10:55:23;3.95;;;1.45;;
70733;SDS011;58320;48.804;9.252;2024-02-15T10:58:06;4.20;;;1.50;;
70733;SDS011;58320;48.804;9.252;2024-02-15T11:00:33;5.45;;;1.40;;
70733;SDS011;58320;48.804;9.252;2024-02-15T11:03:03;4.32;;;1.02;;
70733;SDS011;58320;48.804;9.252;2024-02-15T11:05:35;2.70;;;1.05;;
70733;SDS011;58320;48.804;9.252;2024-02-15T11:08:04;6.93;;;1.50;;
70733;SDS011;58320;48.804;9.252;2024-02-15T11:10:32;4.33;;;1.10;;
70733;SDS011;58320;48.804;9.252;2024-02-15T11:12:59;3.00;;;1.10;;
70733;SDS011;58320;48.804;9.252;2024-02-15T11:18:00;4.43;;;1.25;;
70733;SDS011;58320;48.804;9.252;2024-02-15T11:23:00;5.33;;;0.80;;
70733;SDS011;58320;48.804;9.252;2024-02-15T11:25:32;3.17;;;1.10;;
70733;SDS011;58320;48.804;9.252;2024-02-15T11:28:34;3.92;;;1.10;;
70733;SDS011;58320;48.804;9.252;2024-02-15T11:31:03;3.35;;;1.05;;
70733;SDS011;58320;48.804;9.252;2024-02-15T11:33:33;3.28;;;1.27;;
70733;SDS011;58320;48.804;9.252;2024-02-15T11:36:12;3.20;;;1.30;;
70733;SDS011;58320;48.804;9.252;2024-02-15T11:38:39;3.88;;;1.30;;
70733;SDS011;58320;48.804;9.252;2024-02-15T11:41:06;4.72;;;1.13;;
70733;SDS011;58320;48.804;9.252;2024-02-15T11:46:19;3.47;;;1.02;;
70733;SDS011;58320;48.804;9.252;2024-02-15T11:48:45;3.10;;;1.20;;
70733;SDS011;58320;48.804;9.252;2024-02-15T11:54:11;3.38;;;1.30;;
70733;SDS011;58320;48.804;9.252;2024-02-15T11:59:09;4.95;;;1.77;;
70733;SDS011;58320;48.804;9.252;2024-02-15T12:01:43;3.87;;;1.57;;
70733;SDS011;58320;48.804;9.252;2024-02-15T12:04:29;4.22;;;1.58;;
70733;SDS011;58320;48.804;9.252;2024-02-15T12:07:14;5.70;;;1.52;;
70733;SDS011;58320;48.804;9.252;2024-02-15T12:09:59;5.18;;;1.90;;
70733;SDS011;58320;48.804;9.252;2024-02-15T12:12:53;4.55;;;1.55;;
70733;SDS011;58320;48.804;9.252;2024-02-15T12:15:38;3.47;;;1.40;;
70733;SDS011;58320;48.804;9.252;2024-02-15T12:18:22;3.88;;;1.63;;
70733;SDS011;58320;48.804;9.252;2024-02-15T12:21:06;8.15;;;1.45;;
70733;SDS011;58320;48.804;9.252;2024-02-15T12:23:35;7.65;;;3.90;;
70733;SDS011;58320;48.804;9.252;2024-02-15T12:26:03;7.05;;;2.10;;
70733;SDS011;58320;48.804;9.252;2024-02-15T12:28:29;4.93;;;2.50;;
70733;SDS011;58320;48.804;9.252;2024-02-15T12:30:56;10.40;;;5.70;;
70733;SDS011;58320;48.804;9.252;2024-02-15T12:33:22;5.10;;;1.95;;
70733;SDS011;58320;48.804;9.252;2024-02-15T12:35:48;3.65;;;1.67;;
70733;SDS011;58320;48.804;9.252;2024-02-15T12:38:17;3.40;;;1.50;;
70733;SDS011;58320;48.804;9.252;2024-02-15T12:40:43;3.23;;;1.30;;
70733;SDS011;58320;48.804;9.252;2024-02-15T12:43:10;3.13;;;1.40;;
70733;SDS011;58320;48.804;9.252;2024-02-15T12:45:37;3.10;;;1.30;;
70733;SDS011;58320;48.804;9.252;2024-02-15T12:48:06;3.92;;;1.27;;
70733;SDS011;58320;48.804;9.252;2024-02-15T12:50:33;3.27;;;1.30;;
70733;SDS011;58320;48.804;9.252;2024-02-15T12:52:59;5.03;;;1.23;;
70733;SDS011;58320;48.804;9.252;2024-02-15T12:55:27;3.38;;;1.15;;
70733;SDS011;58320;48.804;9.252;2024-02-15T12:57:59;7.05;;;1.60;;
70733;SDS011;58320;48.804;9.252;2024-02-15T13:00:29;4.35;;;1.20;;
70733;SDS011;58320;48.804;9.252;2024-02-15T13:02:59;2.70;;;1.20;;
70733;SDS011;58320;48.804;9.252;2024-02-15T13:05:34;3.67;;;1.55;;
70733;SDS011;58320;48.804;9.252;2024-02-15T13:08:03;4.80;;;1.50;;
70733;SDS011;58320;48.804;9.252;2024-02-15T13:10:34;3.90;;;1.50;;
70733;SDS011;58320;48.804;9.252;2024-02-15T13:13:00;3.45;;;1.63;;
70733;SDS011;58320;48.804;9.252;2024-02-15T13:15:26;5.53;;;1.70;;
70733;SDS011;58320;48.804;9.252;2024-02-15T13:17:55;3.63;;;1.30;;
70733;SDS011;58320;48.804;9.252;2024-02-15T13:20:22;4.63;;;1.30;;
70733;SDS011;58320;48.804;9.252;2024-02-15T13:22:59;3.97;;;1.60;;
70733;SDS011;58320;48.804;9.252;2024-02-15T13:25:40;3.53;;;1.30;;
70733;SDS011;58320;48.804;9.252;2024-02-15T13:28:07;4.13;;;1.50;;
70733;SDS011;58320;48.804;9.252;2024-02-15T13:30:35;3.92;;;1.30;;
70733;SDS011;58320;48.804;9.252;2024-02-15T13:33:01;4.65;;;1.48;;
70733;SDS011;58320;48.804;9.252;2024-02-15T13:35:27;5.20;;;1.40;;
70733;SDS011;58320;48.804;9.252;2024-02-15T13:37:54;3.20;;;1.40;;
70733;SDS011;58320;48.804;9.252;2024-02-15T13:40:23;2.67;;;1.20;;
70733;SDS011;58320;48.804;9.252;2024-02-15T13:42:51;3.80;;;1.10;;
70733;SDS011;58320;48.804;9.252;2024-02-15T13:45:24;3.15;;;1.13;;
70733;SDS011;58320;48.804;9.252;2024-02-15T13:48:02;3.80;;;1.20;;
70733;SDS011;58320;48.804;9.252;2024-02-15T13:50:35;3.97;;;1.40;;
70733;SDS011;58320;48.804;9.252;2024-02-15T13:53:02;6.03;;;3.03;;
70733;SDS011;58320;48.804;9.252;2024-02-15T13:55:29;4.97;;;2.10;;
70733;SDS011;58320;48.804;9.252;2024-02-15T13:57:55;4.68;;;2.30;;
70733;SDS011;58320;48.804;9.252;2024-02-15T14:00:22;5.23;;;2.70;;
70733;SDS011;58320;48.804;9.252;2024-02-15T14:02:58;5.63;;;2.30;;
70733;SDS011;58320;48.804;9.252;2024-02-15T14:05:27;5.80;;;1.73;;
70733;SDS011;58320;48.804;9.252;2024-02-15T14:07:59;5.05;;;1.40;;
70733;SDS011;58320;48.804;9.252;2024-02-15T14:10:27;3.83;;;1.50;;
70733;SDS011;58320;48.804;9.252;2024-02-15T14:12:55;3.40;;;1.47;;
70733;SDS011;58320;48.804;9.252;2024-02-15T14:15:23;5.43;;;1.33;;
70733;SDS011;58320;48.804;9.252;2024-02-15T14:17:49;4.50;;;1.80;;
70733;SDS011;58320;48.804;9.252;2024-02-15T14:20:15;4.78;;;1.42;;
70733;SDS011;58320;48.804;9.252;2024-02-15T14:22:45;3.87;;;1.30;;
70733;SDS011;58320;48.804;9.252;2024-02-15T14:25:18;2.95;;;1.20;;
70733;SDS011;58320;48.804;9.252;2024-02-15T14:27:44;4.32;;;1.50;;
70733;SDS011;58320;48.804;9.252;2024-02-15T14:30:10;3.53;;;1.40;;
70733;SDS011;58320;48.804;9.252;2024-02-15T14:32:54;9.30;;;1.87;;
70733;SDS011;58320;48.804;9.252;2024-02-15T14:35:27;3.28;;;1.35;;
70733;SDS011;58320;48.804;9.252;2024-02-15T14:37:57;4.22;;;1.70;;
70733;SDS011;58320;48.804;9.252;2024-02-15T14:40:23;4.25;;;1.10;;
70733;SDS011;58320;48.804;9.252;2024-02-15T14:42:49;4.67;;;1.47;;
70733;SDS011;58320;48.804;9.252;2024-02-15T14:45:18;6.17;;;1.77;;
70733;SDS011;58320;48.804;9.252;2024-02-15T14:47:45;4.65;;;1.65;;
70733;SDS011;58320;48.804;9.252;2024-02-15T14:50:12;4.53;;;1.70;;
70733;SDS011;58320;48.804;9.252;2024-02-15T14:52:42;5.85;;;1.70;;
70733;SDS011;58320;48.804;9.252;2024-02-15T14:55:08;4.65;;;1.52;;
70733;SDS011;58320;48.804;9.252;2024-02-15T14:57:34;4.97;;;1.90;;
70733;SDS011;58320;48.804;9.252;2024-02-15T15:00:02;4.72;;;1.40;;
70733;SDS011;58320;48.804;9.252;2024-02-15T15:02:35;3.50;;;1.35;;
70733;SDS011;58320;48.804;9.252;2024-02-15T15:05:02;4.70;;;1.45;;
70733;SDS011;58320;48.804;9.252;2024-02-15T15:07:46;8.18;;;2.97;;
70733;SDS011;58320;48.804;9.252;2024-02-15T15:10:30;4.47;;;2.33;;
70733;SDS011;58320;48.804;9.252;2024-02-15T15:13:14;4.65;;;1.55;;
70733;SDS011;58320;48.804;9.252;2024-02-15T15:15:40;5.28;;;1.58;;
70733;SDS011;58320;48.804;9.252;2024-02-15T15:18:06;4.18;;;1.33;;
70733;SDS011;58320;48.804;9.252;2024-02-15T15:20:33;3.47;;;1.50;;
70733;SDS011;58320;48.804;9.252;2024-02-15T15:22:59;3.90;;;1.38;;
70733;SDS011;58320;48.804;9.252;2024-02-15T15:25:26;4.43;;;1.15;;
70733;SDS011;58320;48.804;9.252;2024-02-15T15:27:55;2.42;;;1.15;;
70733;SDS011;58320;48.804;9.252;2024-02-15T15:30:21;3.13;;;1.23;;
70733;SDS011;58320;48.804;9.252;2024-02-15T15:32:47;2.90;;;1.10;;
70733;SDS011;58320;48.804;9.252;2024-02-15T15:35:14;3.83;;;1.00;;
70733;SDS011;58320;48.804;9.252;2024-02-15T15:37:43;4.10;;;1.20;;
70733;SDS011;58320;48.804;9.252;2024-02-15T15:40:12;3.45;;;1.10;;
70733;SDS011;58320;48.804;9.252;2024-02-15T15:42:41;3.77;;;1.30;;
70733;SDS011;58320;48.804;9.252;2024-02-15T15:45:06;4.70;;;1.08;;
70733;SDS011;58320;48.804;9.252;2024-02-15T15:47:33;3.53;;;1.10;;
70733;SDS011;58320;48.804;9.252;2024-02-15T15:50:00;4.07;;;1.50;;
70733;SDS011;58320;48.804;9.252;2024-02-15T15:52:26;4.30;;;1.50;;
70733;SDS011;58320;48.804;9.252;2024-02-15T15:54:52;5.47;;;1.40;;
70733;SDS011;58320;48.804;9.252;2024-02-15T15:57:18;3.28;;;1.40;;
70733;SDS011;58320;48.804;9.252;2024-02-15T15:59:45;3.97;;;1.40;;
70733;SDS011;58320;48.804;9.252;2024-02-15T16:02:13;3.10;;;1.60;;
70733;SDS011;58320;48.804;9.252;2024-02-15T16:04:43;4.90;;;1.60;;
70733;SDS011;58320;48.804;9.252;2024-02-15T16:07:10;4.85;;;1.25;;
70733;SDS011;58320;48.804;9.252;2024-02-15T16:09:37;3.28;;;1.33;;
70733;SDS011;58320;48.804;9.252;2024-02-15T16:12:09;5.22;;;1.70;;
70733;SDS011;58320;48.804;9.252;2024-02-15T16:14:41;8.57;;;1.48;;
70733;SDS011;58320;48.804;9.252;2024-02-15T16:17:10;4.10;;;1.20;;
70733;SDS011;58320;48.804;9.252;2024-02-15T16:19:36;3.80;;;1.17;;
70733;SDS011;58320;48.804;9.252;2024-02-15T16:22:02;4.82;;;1.05;;
70733;SDS011;58320;48.804;9.252;2024-02-15T16:24:28;3.47;;;1.47;;
70733;SDS011;58320;48.804;9.252;2024-02-15T16:26:57;4.15;;;1.80;;
70733;SDS011;58320;48.804;9.252;2024-02-15T16:29:23;4.93;;;1.42;;
70733;SDS011;58320;48.804;9.252;2024-02-15T16:31:49;4.28;;;1.20;;
70733;SDS011;58320;48.804;9.252;2024-02-15T16:34:15;7.47;;;1.40;;
70733;SDS011;58320;48.804;9.252;2024-02-15T16:36:42;4.13;;;1.70;;
70733;SDS011;58320;48.804;9.252;2024-02-15T16:39:10;5.60;;;2.25;;
70733;SDS011;58320;48.804;9.252;2024-02-15T16:41:36;5.65;;;2.83;;
70733;SDS011;58320;48.804;9.252;2024-02-15T16:44:02;8.40;;;3.23;;
70733;SDS011;58320;48.804;9.252;2024-02-15T16:46:28;8.07;;;3.38;;
70733;SDS011;58320;48.804;9.252;2024-02-15T16:48:54;5.70;;;2.40;;
70733;SDS011;58320;48.804;9.252;2024-02-15T16:51:23;5.63;;;2.33;;
70733;SDS011;58320;48.804;9.252;2024-02-15T16:53:51;5.53;;;2.40;;
70733;SDS011;58320;48.804;9.252;2024-02-15T16:56:18;7.32;;;2.50;;
70733;SDS011;58320;48.804;9.252;2024-02-15T16:58:48;5.40;;;2.42;;
70733;SDS011;58320;48.804;9.252;2024-02-15T17:01:18;6.18;;;3.28;;
70733;SDS011;58320;48.804;9.252;2024-02-15T17:03:44;3.90;;;2.00;;
70733;SDS011;58320;48.804;9.252;2024-02-15T17:06:10;5.40;;;1.92;;
70733;SDS011;58320;48.804;9.252;2024-02-15T17:08:36;5.20;;;1.80;;
70733;SDS011;58320;48.804;9.252;2024-02-15T17:11:02;4.13;;;1.73;;
70733;SDS011;58320;48.804;9.252;2024-02-15T17:13:29;5.60;;;2.10;;
70733;SDS011;58320;48.804;9.252;2024-02-15T17:15:54;4.97;;;2.17;;
70733;SDS011;58320;48.804;9.252;2024-02-15T17:18:21;5.45;;;2.00;;
70733;SDS011;58320;48.804;9.252;2024-02-15T17:20:46;6.30;;;2.07;;
70733;SDS011;58320;48.804;9.252;2024-02-15T17:23:12;4.72;;;1.90;;
70733;SDS011;58320;48.804;9.252;2024-02-15T17:25:38;4.68;;;1.80;;
70733;SDS011;58320;48.804;9.252;2024-02-15T17:28:05;5.03;;;2.00;;
70733;SDS011;58320;48.804;9.252;2024-02-15T17:30:32;5.97;;;1.70;;
70733;SDS011;58320;48.804;9.252;2024-02-15T17:32:58;4.65;;;1.90;;
70733;SDS011;58320;48.804;9.252;2024-02-15T17:35:24;4.75;;;1.88;;
70733;SDS011;58320;48.804;9.252;2024-02-15T17:37:50;4.03;;;2.00;;
70733;SDS011;58320;48.804;9.252;2024-02-15T17:40:16;4.60;;;2.10;;
70733;SDS011;58320;48.804;9.252;2024-02-15T17:42:43;5.43;;;1.88;;
70733;SDS011;58320;48.804;9.252;2024-02-15T17:45:09;8.30;;;2.00;;
70733;SDS011;58320;48.804;9.252;2024-02-15T17:47:39;4.43;;;1.73;;
70733;SDS011;58320;48.804;9.252;2024-02-15T17:50:09;5.10;;;1.70;;
70733;SDS011;58320;48.804;9.252;2024-02-15T17:52:48;4.95;;;1.70;;
70733;SDS011;58320;48.804;9.252;2024-02-15T17:55:13;5.40;;;1.92;;
70733;SDS011;58320;48.804;9.252;2024-02-15T17:57:39;4.82;;;1.75;;
70733;SDS011;58320;48.804;9.252;2024-02-15T18:00:06;4.13;;;1.80;;
70733;SDS011;58320;48.804;9.252;2024-02-15T18:02:46;15.52;;;2.20;;
70733;SDS011;58320;48.804;9.252;2024-02-15T18:05:13;4.88;;;2.13;;
70733;SDS011;58320;48.804;9.252;2024-02-15T18:07:40;7.78;;;2.03;;
70733;SDS011;58320;48.804;9.252;2024-02-15T18:10:06;4.78;;;2.35;;
70733;SDS011;58320;48.804;9.252;2024-02-15T18:12:36;8.30;;;1.90;;
70733;SDS011;58320;48.804;9.252;2024-02-15T18:15:06;5.82;;;2.03;;
70733;SDS011;58320;48.804;9.252;2024-02-15T18:17:38;5.05;;;2.30;;
70733;SDS011;58320;48.804;9.252;2024-02-15T18:20:05;4.72;;;2.25;;
70733;SDS011;58320;48.804;9.252;2024-02-15T18:22:33;4.60;;;2.60;;
70733;SDS011;58320;48.804;9.252;2024-02-15T18:24:58;5.20;;;2.30;;
70733;SDS011;58320;48.804;9.252;2024-02-15T18:27:24;6.15;;;2.50;;
70733;SDS011;58320;48.804;9.252;2024-02-15T18:29:50;6.17;;;2.60;;
70733;SDS011;58320;48.804;9.252;2024-02-15T18:32:15;8.13;;;2.65;;
70733;SDS011;58320;48.804;9.252;2024-02-15T18:34:43;6.67;;;2.57;;
70733;SDS011;58320;48.804;9.252;2024-02-15T18:37:09;8.00;;;2.50;;
70733;SDS011;58320;48.804;9.252;2024-02-15T18:39:35;7.68;;;2.53;;
70733;SDS011;58320;48.804;9.252;2024-02-15T18:42:01;6.18;;;2.70;;
70733;SDS011;58320;48.804;9.252;2024-02-15T18:44:30;5.70;;;2.30;;
70733;SDS011;58320;48.804;9.252;2024-02-15T18:46:57;5.37;;;2.40;;
70733;SDS011;58320;48.804;9.252;2024-02-15T18:49:23;9.13;;;2.65;;
70733;SDS011;58320;48.804;9.252;2024-02-15T18:51:49;6.68;;;2.47;;
70733;SDS011;58320;48.804;9.252;2024-02-15T18:54:16;5.68;;;2.50;;
70733;SDS011;58320;48.804;9.252;2024-02-15T18:56:44;4.85;;;2.20;;
70733;SDS011;58320;48.804;9.252;2024-02-15T18:59:12;4.87;;;2.10;;
70733;SDS011;58320;48.804;9.252;2024-02-15T19:01:38;3.97;;;2.03;;
70733;SDS011;58320;48.804;9.252;2024-02-15T19:04:03;8.20;;;3.50;;
70733;SDS011;58320;48.804;9.252;2024-02-15T19:06:29;7.32;;;3.47;;
70733;SDS011;58320;48.804;9.252;2024-02-15T19:09:04;7.10;;;3.03;;
70733;SDS011;58320;48.804;9.252;2024-02-15T19:11:33;5.63;;;2.60;;